Great — TCYV6 — position and weather

sailwx.info

Track history (hours):
 
Tides and Currents Weather Stations Pressure Air Temp Water Temp Dewpoint Dewpoint Depression Visibility Wind Speed Wind Dir Waves Ship Positions

Great

Last reported at 2014-Aug-28 08:33 UTC. Time now 2014-Sep-03 02:20 UTC.
Position N 43°08' E 034°46'.

Length 187 m; draft 9.1 m.

Type: Cargo ship. MMSI: 271042241.

Date/timePositionNaut miles runAvg speedWind from/ knotsBaromVisibWave heightAir tempDewpointWater temp
2014-Aug-28 08:33N 43°08' E 034°46'1110.8
2014-Aug-28 07:33N 43°14' E 034°58'1410.9
2014-Aug-28 06:18N 43°22' E 035°14'2011.2
2014-Aug-28 04:29N 43°33' E 035°38'1111.1
2014-Aug-28 03:30N 43°39' E 035°50'3311.0
2014-Aug-28 00:30N 43°58' E 036°28'4610.7
2014-Aug-27 20:09N 44°24' E 037°21'711.3
2014-Aug-27 19:33N 44°28' E 037°29'1111.3
2014-Aug-27 18:33N 44°34' E 037°42'8 8.4
2014-Aug-27 17:33N 44°40' E 037°50'4 3.7
2014-Aug-27 16:30N 44°44' E 037°48'0 0.0
2014-Aug-27 15:32N 44°44' E 037°48'0 0.0
2014-Aug-27 14:32N 44°44' E 037°48'0 0.0
2014-Aug-27 13:28N 44°44' E 037°48'0 0.0
2014-Aug-27 12:31N 44°44' E 037°48'0 0.0
2014-Aug-27 11:31N 44°44' E 037°48'0 0.0
2014-Aug-27 10:31N 44°44' E 037°48'0 0.0
2014-Aug-27 09:33N 44°44' E 037°48'0 0.0
2014-Aug-27 08:33N 44°44' E 037°48'0 0.0
2014-Aug-27 07:33N 44°44' E 037°48'0 0.0
2014-Aug-27 06:33N 44°44' E 037°48'0 0.0
2014-Aug-27 05:33N 44°44' E 037°48'0 0.0
2014-Aug-27 04:33N 44°44' E 037°48'0 0.0
2014-Aug-27 03:30N 44°44' E 037°48'0 0.0
2014-Aug-27 02:33N 44°44' E 037°48'0 0.0
2014-Aug-27 01:33N 44°44' E 037°48'0 0.0
2014-Aug-27 00:33N 44°44' E 037°48'0 0.0
2014-Aug-26 23:33N 44°44' E 037°48'0 0.0
2014-Aug-26 22:33N 44°44' E 037°48'0 0.0
2014-Aug-26 21:33N 44°44' E 037°48'0 0.0
2014-Aug-26 20:33N 44°44' E 037°48'0 0.0
2014-Aug-26 19:32N 44°44' E 037°48'0 0.0
2014-Aug-26 18:32N 44°44' E 037°48'0 0.0
2014-Aug-26 17:29N 44°44' E 037°48'0 0.0
2014-Aug-26 16:32N 44°44' E 037°48'0 0.0
2014-Aug-26 15:34N 44°44' E 037°48'0 0.0
2014-Aug-26 14:32N 44°44' E 037°48'0 0.0
2014-Aug-26 13:32N 44°44' E 037°48'0 0.0
2014-Aug-26 12:31N 44°44' E 037°48'0 0.0
2014-Aug-26 11:31N 44°44' E 037°48'0 0.0
2014-Aug-26 10:33N 44°44' E 037°48'0 0.0
2014-Aug-26 09:32N 44°44' E 037°48'0 0.0
2014-Aug-26 08:32N 44°44' E 037°48'0 0.0
2014-Aug-26 07:29N 44°44' E 037°48'0 0.0
2014-Aug-26 06:32N 44°44' E 037°48'0 0.0
2014-Aug-26 05:32N 44°44' E 037°48'0 0.0
2014-Aug-26 04:31N 44°44' E 037°48'2 2.0
2014-Aug-26 03:33N 44°42' E 037°49'8 7.8
2014-Aug-26 02:33N 44°34' E 037°50'1111.1
2014-Aug-26 01:33N 44°28' E 037°38'  
2014-Aug-23 03:28N 40°57' E 028°55'0 0.0
2014-Aug-23 02:29N 40°57' E 028°55'0 0.0
2014-Aug-23 01:20N 40°57' E 028°55'0 0.0
2014-Aug-23 00:28N 40°57' E 028°55'0 0.0
2014-Aug-22 23:27N 40°57' E 028°55'0 0.0
2014-Aug-22 22:29N 40°57' E 028°55'0 0.0
2014-Aug-22 21:24N 40°57' E 028°55'0 0.0
2014-Aug-22 20:31N 40°57' E 028°55'0 0.0
2014-Aug-22 19:31N 40°57' E 028°55'0 0.0
2014-Aug-22 18:20N 40°57' E 028°55'0 0.1
2014-Aug-22 17:28N 40°57' E 028°55'3 3.1
2014-Aug-22 16:32N 40°55' E 028°56'6911.5
2014-Aug-22 10:31N 40°40' E 027°27'2811.6
2014-Aug-22 08:08N 40°29' E 026°54'3010.7
2014-Aug-22 05:19N 40°10' E 026°23'16 9.0
2014-Aug-22 03:33N 40°00' E 026°07'1110.3
2014-Aug-22 02:27N 39°54' E 025°54'910.3
2014-Aug-22 01:33N 39°46' E 025°48'1411.3
2014-Aug-22 00:20N 39°34' E 025°39'1011.9
2014-Aug-21 23:30N 39°25' E 025°34'1312.3
2014-Aug-21 22:26N 39°14' E 025°26'2312.3
2014-Aug-21 20:33N 38°53' E 025°12'6312.2
2014-Aug-21 15:25N 37°56' E 024°39'1011.2
2014-Aug-21 14:30N 37°47' E 024°34'1111.7
2014-Aug-21 13:33N 37°37' E 024°28'1211.7
2014-Aug-21 12:33N 37°28' E 024°18'1212.1
2014-Aug-21 11:33N 37°19' E 024°08'1212.2
2014-Aug-21 10:33N 37°09' E 023°58'1111.3
2014-Aug-21 09:33N 37°01' E 023°49'1212.1
2014-Aug-21 08:33N 36°51' E 023°39'1211.7
2014-Aug-21 07:31N 36°42' E 023°30'1111.7
2014-Aug-21 06:33N 36°33' E 023°22'  
Track history (hours):
 
Tides and Currents Weather Stations Pressure Air Temp Water Temp Dewpoint Dewpoint Depression Visibility Wind Speed Wind Dir Waves Ship Positions

Great

Last reported at 2014-Aug-28 08:33 UTC. Time now 2014-Sep-03 02:20 UTC.
Position N 43°08' E 034°46'.

Length 187 m; draft 9.1 m.

Type: Cargo ship. MMSI: 271042241.

Date/timePositionNaut miles runAvg speedWind from/ knotsBaromVisibWave heightAir tempDewpointWater temp
2014-Aug-28 08:33N 43°08' E 034°46'1110.8
2014-Aug-28 07:33N 43°14' E 034°58'1410.9
2014-Aug-28 06:18N 43°22' E 035°14'2011.2
2014-Aug-28 04:29N 43°33' E 035°38'1111.1
2014-Aug-28 03:30N 43°39' E 035°50'3311.0
2014-Aug-28 00:30N 43°58' E 036°28'4610.7
2014-Aug-27 20:09N 44°24' E 037°21'711.3
2014-Aug-27 19:33N 44°28' E 037°29'1111.3
2014-Aug-27 18:33N 44°34' E 037°42'8 8.4
2014-Aug-27 17:33N 44°40' E 037°50'4 3.7
2014-Aug-27 16:30N 44°44' E 037°48'0 0.0
2014-Aug-27 15:32N 44°44' E 037°48'0 0.0
2014-Aug-27 14:32N 44°44' E 037°48'0 0.0
2014-Aug-27 13:28N 44°44' E 037°48'0 0.0
2014-Aug-27 12:31N 44°44' E 037°48'0 0.0
2014-Aug-27 11:31N 44°44' E 037°48'0 0.0
2014-Aug-27 10:31N 44°44' E 037°48'0 0.0
2014-Aug-27 09:33N 44°44' E 037°48'0 0.0
2014-Aug-27 08:33N 44°44' E 037°48'0 0.0
2014-Aug-27 07:33N 44°44' E 037°48'0 0.0
2014-Aug-27 06:33N 44°44' E 037°48'0 0.0
2014-Aug-27 05:33N 44°44' E 037°48'0 0.0
2014-Aug-27 04:33N 44°44' E 037°48'0 0.0
2014-Aug-27 03:30N 44°44' E 037°48'0 0.0
2014-Aug-27 02:33N 44°44' E 037°48'0 0.0
2014-Aug-27 01:33N 44°44' E 037°48'0 0.0
2014-Aug-27 00:33N 44°44' E 037°48'0 0.0
2014-Aug-26 23:33N 44°44' E 037°48'0 0.0
2014-Aug-26 22:33N 44°44' E 037°48'0 0.0
2014-Aug-26 21:33N 44°44' E 037°48'0 0.0
2014-Aug-26 20:33N 44°44' E 037°48'0 0.0
2014-Aug-26 19:32N 44°44' E 037°48'0 0.0
2014-Aug-26 18:32N 44°44' E 037°48'0 0.0
2014-Aug-26 17:29N 44°44' E 037°48'0 0.0
2014-Aug-26 16:32N 44°44' E 037°48'0 0.0
2014-Aug-26 15:34N 44°44' E 037°48'0 0.0
2014-Aug-26 14:32N 44°44' E 037°48'0 0.0
2014-Aug-26 13:32N 44°44' E 037°48'0 0.0
2014-Aug-26 12:31N 44°44' E 037°48'0 0.0
2014-Aug-26 11:31N 44°44' E 037°48'0 0.0
2014-Aug-26 10:33N 44°44' E 037°48'0 0.0
2014-Aug-26 09:32N 44°44' E 037°48'0 0.0
2014-Aug-26 08:32N 44°44' E 037°48'0 0.0
2014-Aug-26 07:29N 44°44' E 037°48'0 0.0
2014-Aug-26 06:32N 44°44' E 037°48'0 0.0
2014-Aug-26 05:32N 44°44' E 037°48'0 0.0
2014-Aug-26 04:31N 44°44' E 037°48'2 2.0
2014-Aug-26 03:33N 44°42' E 037°49'8 7.8
2014-Aug-26 02:33N 44°34' E 037°50'1111.1
2014-Aug-26 01:33N 44°28' E 037°38'  
2014-Aug-23 03:28N 40°57' E 028°55'0 0.0
2014-Aug-23 02:29N 40°57' E 028°55'0 0.0
2014-Aug-23 01:20N 40°57' E 028°55'0 0.0
2014-Aug-23 00:28N 40°57' E 028°55'0 0.0
2014-Aug-22 23:27N 40°57' E 028°55'0 0.0
2014-Aug-22 22:29N 40°57' E 028°55'0 0.0
2014-Aug-22 21:24N 40°57' E 028°55'0 0.0
2014-Aug-22 20:31N 40°57' E 028°55'0 0.0
2014-Aug-22 19:31N 40°57' E 028°55'0 0.0
2014-Aug-22 18:20N 40°57' E 028°55'0 0.1
2014-Aug-22 17:28N 40°57' E 028°55'3 3.1
2014-Aug-22 16:32N 40°55' E 028°56'6911.5
2014-Aug-22 10:31N 40°40' E 027°27'2811.6
2014-Aug-22 08:08N 40°29' E 026°54'3010.7
2014-Aug-22 05:19N 40°10' E 026°23'16 9.0
2014-Aug-22 03:33N 40°00' E 026°07'1110.3
2014-Aug-22 02:27N 39°54' E 025°54'910.3
2014-Aug-22 01:33N 39°46' E 025°48'1411.3
2014-Aug-22 00:20N 39°34' E 025°39'1011.9
2014-Aug-21 23:30N 39°25' E 025°34'1312.3
2014-Aug-21 22:26N 39°14' E 025°26'2312.3
2014-Aug-21 20:33N 38°53' E 025°12'6312.2
2014-Aug-21 15:25N 37°56' E 024°39'1011.2
2014-Aug-21 14:30N 37°47' E 024°34'1111.7
2014-Aug-21 13:33N 37°37' E 024°28'1211.7
2014-Aug-21 12:33N 37°28' E 024°18'1212.1
2014-Aug-21 11:33N 37°19' E 024°08'1212.2
2014-Aug-21 10:33N 37°09' E 023°58'1111.3
2014-Aug-21 09:33N 37°01' E 023°49'1212.1
2014-Aug-21 08:33N 36°51' E 023°39'1211.7
2014-Aug-21 07:31N 36°42' E 023°30'1111.7
2014-Aug-21 06:33N 36°33' E 023°22'  

Dump ship's entire track history